Flight Track Log - Related Links

Times and Time Zones

All times are in EDT time to prevent confusion due to time zone crossing. See the AAL832 flight status page for this flight to view local times or setup timezone preferences in your user account.

Time Position Orientation Groundspeed Altitude Reporting Facility
EDT Latitude Longitude Course Direction KTS MPH feet Rate Location/Type
Mon 05:37:13 PM 41.9572 -87.9547 180° South 179 206 2,000  Level Chicago Center
Mon 05:38:15 PM 41.9011 -87.9672 189° South 239 275 4,200 1,452 Climbing Chicago Center
Mon 05:39:00 PM 41.6620 -87.7200 180° South  Level Estimated
Mon 05:39:17 PM 41.8331 -87.9319 159° South 254 292 5,000  Level Chicago Center
Mon 05:40:00 PM 41.5554 -87.6582 176° South  Level Estimated
Mon 05:40:19 PM 41.7664 -87.8842 152° Southeast 264 304 6,500  Level Chicago Center
Mon 05:41:00 PM 41.4487 -87.5966 180° South  Level Estimated
Mon 05:41:20 PM 41.6728 -87.8783 177° South 275 316 10,100  Level Chicago Center
Mon 05:42:00 PM 41.3420 -87.5352 180° South  Level Estimated
Mon 05:42:22 PM 41.5917 -87.8778 180° South 289 333 12,600  Level Chicago Center
Mon 05:43:24 PM 41.5008 -87.8775 180° South 319 367 14,100 1,645 Climbing Chicago Center
Mon 05:44:26 PM 41.3936 -87.8786 180° South 373 429 16,000 2,129 Climbing Chicago Center
Mon 05:45:28 PM 41.2833 -87.8758 179° South 388 447 18,500 2,244 Climbing Chicago Center
Mon 05:46:29 PM 41.1717 -87.8731 179° South 396 456 20,600 1,902 Climbing Chicago Center
Mon 05:47:31 PM 41.0558 -87.8689 178° South 411 473 22,400 1,500 Climbing Chicago Center
Mon 05:48:33 PM 40.9389 -87.8614 177° South 419 482 23,700 1,597 Climbing Chicago Center
Mon 05:49:35 PM 40.7917 -87.8567 179° South 438 504 25,700 1,805 Climbing Chicago Center
Mon 05:50:36 PM 40.6694 -87.8525 179° South 441 507 27,400 1,463 Climbing Chicago Center
Mon 05:51:38 PM 40.5483 -87.8222 169° South 448 516 28,700 1,113 Climbing Chicago Center
Mon 05:52:40 PM 40.4258 -87.7878 168° South 454 522 29,700 1,113 Climbing Chicago Center
Mon 05:53:42 PM 40.3014 -87.7553 169° South 459 528 31,000 1,306 Climbing Chicago Center
Mon 05:54:44 PM 40.1839 -87.7225 168° South 455 524 32,400 1,706 Climbing Chicago Center
Mon 05:55:24 PM 40.0833 -87.7178 178° South 449 517 33,900 1,588 Climbing Indianapolis Center
Mon 05:56:26 PM 39.9681 -87.7439 190° South 427 491 35,100 1,065 Climbing Indianapolis Center
Mon 05:57:28 PM 39.8539 -87.7731 191° South 422 486 36,100 871 Climbing Indianapolis Center
Mon 05:58:30 PM 39.7403 -87.8031 191° South 420 483 36,900 435 Climbing Indianapolis Center
Mon 05:59:32 PM 39.6042 -87.8397 192° South 418 481 37,000 49 Climbing Indianapolis Center
Mon 06:00:33 PM 39.4881 -87.8156 171° South 424 488 37,000  Level Indianapolis Center
Mon 06:01:35 PM 39.3744 -87.7736 164° South 426 490 37,000  Level Indianapolis Center
Mon 06:02:37 PM 39.2464 -87.7308 165° South 427 491 37,000  Level Indianapolis Center
Mon 06:03:39 PM 39.1331 -87.6903 164° South 423 487 37,000  Level Indianapolis Center
Mon 06:04:41 PM 39.0192 -87.6506 165° South 423 487 37,000  Level Indianapolis Center
Mon 06:05:43 PM 38.9050 -87.6106 165° South 424 488 37,000  Level Indianapolis Center
Mon 06:06:44 PM 38.7908 -87.5708 165° South 425 489 37,000  Level Indianapolis Center
Mon 06:07:46 PM 38.6767 -87.5322 165° South 424 488 37,000  Level Indianapolis Center
Mon 06:08:48 PM 38.5619 -87.4922 165° South 427 491 37,000  Level Indianapolis Center
Mon 06:09:50 PM 38.4250 -87.4456 165° South 426 490 37,000  Level Indianapolis Center
Mon 06:10:52 PM 38.3108 -87.4061 165° South 429 494 37,000  Level Indianapolis Center
Mon 06:11:54 PM 38.1964 -87.3681 165° South 429 494 37,000  Level Indianapolis Center
Mon 06:12:55 PM 38.0811 -87.3286 165° South 432 497 37,000  Level Indianapolis Center
Mon 06:13:57 PM 37.9672 -87.2883 164° South 429 494 37,000  Level Indianapolis Center
Mon 06:14:59 PM 37.8525 -87.2508 166° South 426 490 37,000  Level Indianapolis Center
Mon 06:16:01 PM 37.7158 -87.2036 165° South 426 490 37,000  Level Indianapolis Center
Mon 06:17:03 PM 37.6025 -87.1644 165° South 423 487 37,000  Level Indianapolis Center
Mon 06:18:04 PM 37.4864 -87.1286 166° South 416 479 37,000  Level Indianapolis Center
Mon 06:19:06 PM 37.3722 -87.0903 165° South 420 483 37,000  Level Indianapolis Center
Mon 06:20:08 PM 37.2583 -87.0525 165° South 420 483 37,000  Level Indianapolis Center
Mon 06:21:10 PM 37.1447 -87.0142 165° South 419 482 37,000  Level Indianapolis Center
Mon 06:22:11 PM 37.0294 -86.9758 165° South 423 487 37,000  Level Indianapolis Center
Mon 06:23:13 PM 36.9133 -86.9375 165° South 428 493 37,000  Level Indianapolis Center
Mon 06:24:19 PM 36.7731 -86.8911 165° South 424 488 37,000  Level Memphis Center
Mon 06:25:19 PM 36.6553 -86.8522 165° South 429 494 37,000  Level Memphis Center
Mon 06:26:19 PM 36.5394 -86.8133 165° South 429 494 37,000  Level Memphis Center
Mon 06:27:19 PM 36.4350 -86.7381 150° Southeast 429 494 37,000  Level Memphis Center
Mon 06:28:19 PM 36.3389 -86.6600 147° Southeast 449 517 37,000  Level Memphis Center
Mon 06:29:19 PM 36.2386 -86.5822 148° Southeast 443 510 37,000  Level Memphis Center
Mon 06:30:19 PM 36.1381 -86.4994 146° Southeast 437 503 37,000  Level Memphis Center
Mon 06:31:19 PM 36.0289 -86.4069 146° Southeast 437 503 37,000  Level Memphis Center
Mon 06:33:30 PM 35.8075 -86.2178 145° Southeast 425 489 37,000  Level Atlanta Center
Mon 06:34:30 PM 35.7086 -86.1383 147° Southeast 440 506 37,000  Level Atlanta Center
Mon 06:35:30 PM 35.6058 -86.0517 146° Southeast 440 506 37,000  Level Atlanta Center
Mon 06:36:30 PM 35.5050 -85.9650 145° Southeast 440 506 37,000  Level Atlanta Center
Mon 06:37:30 PM 35.4019 -85.8783 146° Southeast 440 506 37,000  Level Atlanta Center
Mon 06:38:30 PM 35.3031 -85.7972 146° Southeast 432 497 37,000  Level Atlanta Center
Mon 06:39:30 PM 35.2000 -85.7086 145° Southeast 438 504 37,000  Level Atlanta Center
Mon 06:40:30 PM 35.0947 -85.6203 146° Southeast 445 512 37,000  Level Atlanta Center
Mon 06:41:30 PM 34.9894 -85.5372 147° Southeast 450 518 37,000  Level Atlanta Center
Mon 06:42:30 PM 34.8839 -85.4517 146° Southeast 456 525 37,000  Level Atlanta Center
Mon 06:43:30 PM 34.7786 -85.3639 146° Southeast 456 525 37,000  Level Atlanta Center
Mon 06:44:30 PM 34.6731 -85.2789 146° Southeast 456 525 37,000  Level Atlanta Center
Mon 06:45:30 PM 34.5694 -85.1942 146° Southeast 456 525 37,000  Level Atlanta Center
Mon 06:46:30 PM 34.4681 -85.1069 145° Southeast 456 525 37,000  Level Atlanta Center
Mon 06:47:30 PM 34.3622 -85.0228 147° Southeast 456 525 37,000  Level Atlanta Center
Mon 06:48:30 PM 34.2564 -84.9361 146° Southeast 461 531 37,000  Level Atlanta Center
Mon 06:49:30 PM 34.1506 -84.8522 147° Southeast 461 531 37,000  Level Atlanta Center
Mon 06:50:30 PM 34.0383 -84.7633 147° Southeast 466 536 37,000  Level Atlanta Center
Mon 06:51:30 PM 33.9325 -84.6822 148° Southeast 466 536 37,000  Level Atlanta Center
Mon 06:52:30 PM 33.8264 -84.5939 145° Southeast 466 536 37,000  Level Atlanta Center
Mon 06:53:30 PM 33.7411 -84.5258 146° Southeast 461 531 37,000  Level Atlanta Center
Mon 06:54:30 PM 33.6161 -84.4678 159° South 453 521 37,000  Level Atlanta Center
Mon 06:55:30 PM 33.4806 -84.4125 161° South 462 532 37,000  Level Atlanta Center
Mon 06:56:30 PM 33.3617 -84.3597 160° South 456 525 37,000  Level Atlanta Center
Mon 06:57:30 PM 33.2533 -84.3144 161° South 456 525 37,000  Level Atlanta Center
Mon 06:58:30 PM 33.1344 -84.2644 161° South 456 525 37,000  Level Atlanta Center
Mon 06:59:30 PM 33.0156 -84.2147 161° South 456 525 37,000  Level Atlanta Center
Mon 07:00:30 PM 32.8861 -84.1575 160° South 449 517 37,000  Level Atlanta Center
Mon 07:01:30 PM 32.7672 -84.1056 160° South 449 517 37,000  Level Atlanta Center
Mon 07:02:30 PM 32.6461 -84.0511 159° South 455 524 37,000  Level Atlanta Center
Mon 07:03:30 PM 32.5211 -84.0461 178° South 455 524 37,000  Level Atlanta Center
Mon 07:04:30 PM 32.3978 -84.0806 193° South 443 510 37,000  Level Atlanta Center
Mon 07:05:30 PM 32.2767 -84.1100 192° South 443 510 37,000  Level Atlanta Center
Mon 07:06:30 PM 32.1556 -84.1419 193° South 448 516 37,000  Level Atlanta Center
Mon 07:07:30 PM 32.0344 -84.1736 192° South 448 516 37,000  Level Atlanta Center
Mon 07:08:30 PM 31.9092 -84.2078 193° South 453 521 37,000  Level Atlanta Center
Mon 07:09:49 PM 31.7461 -84.2167 183° South 455 524 37,000  Level Jacksonville Center
Mon 07:10:48 PM 31.6192 -84.2003 174° South 444 511 37,000  Level Jacksonville Center
Mon 07:11:48 PM 31.4961 -84.1692 168° South 450 518 37,000  Level Jacksonville Center
Mon 07:12:49 PM 31.3733 -84.1336 166° South 455 524 37,000  Level Jacksonville Center
Mon 07:13:48 PM 31.2569 -84.0811 159° South 455 524 37,000  Level Jacksonville Center
Mon 07:14:48 PM 31.1342 -84.0308 161° South 455 524 37,000  Level Jacksonville Center
Mon 07:15:48 PM 31.0136 -83.9786 160° South 461 531 37,000  Level Jacksonville Center
Mon 07:16:49 PM 30.8950 -83.9289 160° South 461 531 37,000  Level Jacksonville Center
Mon 07:17:49 PM 30.7722 -83.8767 160° South 461 531 37,000  Level Jacksonville Center
Mon 07:18:48 PM 30.6536 -83.8294 161° South 461 531 37,000  Level Jacksonville Center
Mon 07:19:49 PM 30.5494 -83.7850 160° South 455 524 37,000  Level Jacksonville Center
Mon 07:20:49 PM 30.4286 -83.7358 161° South 450 518 37,000 -50 Level Jacksonville Center
Mon 07:21:48 PM 30.3058 -83.6867 161° South 455 524 36,900  Descending Jacksonville Center
Mon 07:22:48 PM 30.1872 -83.6350 159° South 461 531 37,000 50 Climbing Jacksonville Center
Mon 07:23:48 PM 30.0600 -83.5861 162° South 466 536 37,000  Level Jacksonville Center
Mon 07:24:48 PM 29.9392 -83.5375 161° South 466 536 37,000  Level Jacksonville Center
Mon 07:25:49 PM 29.8164 -83.4864 160° South 466 536 37,000  Level Jacksonville Center
Mon 07:26:48 PM 29.6933 -83.4378 161° South 461 531 37,000  Level Jacksonville Center
Mon 07:27:48 PM 29.5725 -83.3892 161° South 461 531 37,000  Level Jacksonville Center
Mon 07:28:49 PM 29.4514 -83.3408 161° South 461 531 37,000 -50 Level Jacksonville Center
Mon 07:29:49 PM 29.3203 -83.2881 161° South 461 531 36,900 -50 Descending Jacksonville Center
Mon 07:30:49 PM 29.1972 -83.2375 160° South 461 531 36,900 50 Level Jacksonville Center
Mon 07:31:48 PM 29.0783 -83.1894 161° South 461 531 37,000 50 Climbing Jacksonville Center
Mon 07:32:48 PM 28.9594 -83.1417 161° South 461 531 37,000  Level Jacksonville Center
Mon 07:33:48 PM 28.8383 -83.0917 160° South 461 531 37,000  Level Jacksonville Center
Mon 07:34:49 PM 28.7175 -83.0442 161° South 461 531 37,000  Level Jacksonville Center
Mon 07:35:49 PM 28.5964 -82.9967 161° South 461 531 37,000 -33 Level Jacksonville Center
Mon 07:37:53 PM 28.3583 -82.9161 163° South 456 525 36,900 -33 Descending Miami Center
Mon 07:38:53 PM 28.2283 -82.8881 169° South 463 533 36,900 50 Level Miami Center
Mon 07:39:53 PM 28.1047 -82.8508 165° South 468 539 37,000 50 Climbing Miami Center
Mon 07:40:53 PM 27.9894 -82.7603 145° Southeast 458 527 37,000 -50 Level Miami Center
Mon 07:41:53 PM 27.8847 -82.6678 142° Southeast 453 521 36,900 -50 Descending Miami Center
Mon 07:42:53 PM 27.7842 -82.5783 142° Southeast 463 533 36,900 -400 Level Miami Center
Mon 07:43:53 PM 27.6956 -82.4989 142° Southeast 472 543 36,100 -950 Descending Miami Center
Mon 07:44:53 PM 27.5783 -82.3994 143° Southeast 472 543 35,000 -1,000 Descending Miami Center
Mon 07:45:53 PM 27.4753 -82.3103 142° Southeast 478 550 34,100 -900 Descending Miami Center
Mon 07:46:53 PM 27.3822 -82.2286 142° Southeast 473 544 33,200 -900 Descending Miami Center
Mon 07:47:53 PM 27.2750 -82.1372 143° Southeast 473 544 32,300 -1,000 Descending Miami Center
Mon 07:48:53 PM 27.1558 -82.0339 142° Southeast 479 551 31,200 -1,050 Descending Miami Center
Mon 07:49:53 PM 27.0483 -81.9428 143° Southeast 484 557 30,200 -1,000 Descending Miami Center
Mon 07:50:53 PM 26.9447 -81.8567 143° Southeast 484 557 29,200 -1,000 Descending Miami Center
Mon 07:51:53 PM 26.8456 -81.7711 142° Southeast 474 545 28,200 -1,000 Descending Miami Center
Mon 07:52:53 PM 26.7461 -81.6878 143° Southeast 461 531 27,200 -1,000 Descending Miami Center
Mon 07:53:53 PM 26.6486 -81.6025 142° Southeast 455 524 26,200 -1,150 Descending Miami Center
Mon 07:54:53 PM 26.5511 -81.5197 143° Southeast 449 517 24,900 -1,600 Descending Miami Center
Mon 07:55:53 PM 26.4678 -81.4467 142° Southeast 440 506 23,000 -2,050 Descending Miami Center
Mon 07:56:53 PM 26.3742 -81.3689 143° Southeast 435 501 20,800 -2,150 Descending Miami Center
Mon 07:57:53 PM 26.2847 -81.2939 143° Southeast 419 482 18,700 -2,100 Descending Miami Center
Mon 07:58:53 PM 26.1969 -81.2233 144° Southeast 407 468 16,600 -2,100 Descending Miami Center
Mon 07:59:53 PM 26.1133 -81.1533 143° Southeast 388 447 14,500 -2,100 Descending Miami Center
Mon 08:00:53 PM 26.0319 -81.0833 142° Southeast 383 441 12,400 -2,000 Descending Miami Center
Mon 08:01:53 PM 25.9544 -81.0181 143° Southeast 372 428 10,500 -1,364 Descending Miami Center
Mon 08:02:43 PM 25.8936 -80.9536 136° Southeast 304 350 9,900 -865 Descending Miami Center
Mon 08:03:44 PM 25.8811 -80.8725 100° East 263 303 8,900 -1,131 Descending Miami Center
Mon 08:04:45 PM 25.8792 -80.7894 91° East 266 306 7,600 -1,328 Descending Miami Center
Mon 08:05:46 PM 25.8772 -80.7039 91° East 261 300 6,200 -1,131 Descending Miami Center
Mon 08:06:47 PM 25.8772 -80.6253 90° East 253 291 5,300 -878 Descending Miami Center
Mon 08:07:49 PM 25.8728 -80.5558 94° East 216 249 4,400 -976 Descending Miami Center
Mon 08:08:50 PM 25.8744 -80.4914 88° East 201 231 3,300 -1,082 Descending Miami Center

Login

Don't have an account? Register now (free) for customized features, flight alerts, and more!